Unalaska, Alaska
Current Conditions -  °F | °C
As of 3:56 PM on Saturday 22 Nov 2014 (Local Time) from PADU Reporting Station
Light Rain Light Rain  
Wind Chill: 33°   Ceiling: 1300
Heat Index: 42°   Visibility: 10mi
Dew Point: 37°   Wind: 22mph
Humidity: 82%   Direction: 300°WNW
Pressure: 29.04"   Gusts: NA
Location:  53.87°N, 166.54°W
Report Text: PADU 230056Z 30019KT 10SM -RA BKN013 BKN020 OVC028 06/03 A2904 RMK AO2 SLP840 VIS LWR W-NW MH P0002 T00560028
Loading
Personal Weather Stations






























Interactive Weather Map New forecast layout! Learn more

10-Day Weather Forecast

Advertisements
Track Severe Weather on mobile